createdAt,value
2023-03-15T00:00:27.475Z,9.365931
2023-03-15T00:01:27.490Z,9.365969
2023-03-15T00:02:27.488Z,9.365979
2023-03-15T00:03:27.456Z,9.365933
2023-03-15T00:04:27.485Z,9.365964
2023-03-15T00:05:27.444Z,9.365974
2023-03-15T00:06:27.413Z,9.365979
2023-03-15T00:07:27.505Z,9.365969
2023-03-15T00:08:27.377Z,9.365949
2023-03-15T00:09:28.402Z,9.365984
2023-03-15T00:10:27.381Z,9.365994
2023-03-15T00:11:27.367Z,9.365978
2023-03-15T00:12:27.391Z,9.365979
2023-03-15T00:13:27.349Z,9.365945
2023-03-15T00:14:27.339Z,9.365950
2023-03-15T00:15:27.461Z,9.365960
2023-03-15T00:16:27.312Z,9.365976
2023-03-15T00:17:27.256Z,9.366050
2023-03-15T00:18:27.416Z,9.366076
2023-03-15T00:19:27.273Z,9.366000
2023-03-15T00:20:27.259Z,9.365947
2023-03-15T00:21:27.252Z,9.365974
2023-03-15T00:22:27.254Z,9.365949
2023-03-15T00:23:27.242Z,9.366017
2023-03-15T00:24:27.232Z,9.365979
2023-03-15T00:25:27.253Z,9.366046
2023-03-15T00:26:28.181Z,9.366114
2023-03-15T00:27:27.253Z,9.366158
2023-03-15T00:28:27.195Z,9.366007
2023-03-15T00:29:27.181Z,9.366007
2023-03-15T00:30:27.172Z,9.365984
2023-03-15T00:31:27.136Z,9.365963
2023-03-15T00:32:27.112Z,9.365966
2023-03-15T00:33:27.110Z,9.365969
2023-03-15T00:34:27.111Z,9.366003
2023-03-15T00:35:27.088Z,9.365928
2023-03-15T00:36:27.063Z,9.365892
2023-03-15T00:37:27.056Z,9.365790
2023-03-15T00:38:27.018Z,9.365915
2023-03-15T00:39:27.028Z,9.365895
2023-03-15T00:40:27.054Z,9.365956
2023-03-15T00:41:27.016Z,9.366002
2023-03-15T00:42:27.012Z,9.365819
2023-03-15T00:43:26.983Z,9.365871
2023-03-15T00:44:26.953Z,9.365708
2023-03-15T00:45:27.008Z,9.365767
2023-03-15T00:46:27.050Z,9.365841
2023-03-15T00:47:26.982Z,9.365867
2023-03-15T00:48:26.934Z,9.365962
2023-03-15T00:49:26.959Z,9.365919
2023-03-15T00:50:26.970Z,9.365968
2023-03-15T00:51:26.899Z,9.366088
2023-03-15T00:52:26.896Z,9.365970
2023-03-15T00:53:26.856Z,9.365867
2023-03-15T00:54:26.844Z,9.365997
2023-03-15T00:55:26.983Z,9.365987
2023-03-15T00:56:26.878Z,9.365928
2023-03-15T00:57:26.864Z,9.365760
2023-03-15T00:58:27.628Z,9.365826
2023-03-15T00:59:26.815Z,9.365935
2023-03-15T01:00:26.775Z,9.365938
2023-03-15T01:01:26.870Z,9.365825
2023-03-15T01:02:26.859Z,9.366052
2023-03-15T01:03:26.759Z,9.365875
2023-03-15T01:04:27.774Z,9.365784
2023-03-15T01:05:26.748Z,9.365886
2023-03-15T01:06:26.773Z,9.365851
2023-03-15T01:07:26.738Z,9.365848
2023-03-15T01:08:26.712Z,9.365926
2023-03-15T01:09:26.698Z,9.365964
2023-03-15T01:10:26.693Z,9.365909
2023-03-15T01:11:26.721Z,9.365827
2023-03-15T01:12:26.679Z,9.365822
2023-03-15T01:13:26.655Z,9.365878
2023-03-15T01:14:26.614Z,9.365920
2023-03-15T01:15:26.643Z,9.366146
2023-03-15T01:16:26.702Z,9.365986
2023-03-15T01:17:26.634Z,9.365931
2023-03-15T01:18:26.584Z,9.365919
2023-03-15T01:19:26.644Z,9.365714
2023-03-15T01:20:26.580Z,9.365868
2023-03-15T01:21:26.580Z,9.365857
2023-03-15T01:22:26.608Z,9.365952
2023-03-15T01:23:26.544Z,9.365609
2023-03-15T01:24:26.510Z,9.365736
2023-03-15T01:25:26.514Z,9.365984
2023-03-15T01:26:26.542Z,9.365949
2023-03-15T01:27:26.502Z,9.366023
2023-03-15T01:28:26.489Z,9.366080
2023-03-15T01:29:26.490Z,9.366061
2023-03-15T01:30:26.438Z,9.366192
2023-03-15T01:31:26.493Z,9.366320
2023-03-15T01:32:26.475Z,9.366383
2023-03-15T01:33:26.492Z,9.365958
2023-03-15T01:34:26.416Z,9.365898
2023-03-15T01:35:26.395Z,9.365932
2023-03-15T01:36:26.386Z,9.365913
2023-03-15T01:37:26.404Z,9.366050
2023-03-15T01:38:26.415Z,9.366062
2023-03-15T01:39:26.340Z,9.366050
2023-03-15T01:40:26.409Z,9.366039
2023-03-15T01:41:26.693Z,9.365969
2023-03-15T01:42:26.536Z,9.366229
2023-03-15T01:43:26.377Z,9.366374
2023-03-15T01:44:26.363Z,9.366057
2023-03-15T01:45:26.282Z,9.366103
2023-03-15T01:46:26.325Z,9.366066
2023-03-15T01:47:26.295Z,9.365981
2023-03-15T01:48:26.308Z,9.365900
2023-03-15T01:49:26.301Z,9.365722
2023-03-15T01:50:26.238Z,9.365859
2023-03-15T01:51:26.200Z,9.366023
2023-03-15T01:52:26.266Z,9.366050
2023-03-15T01:53:26.294Z,9.366055
2023-03-15T01:54:26.281Z,9.366053
2023-03-15T01:55:26.182Z,9.366024
2023-03-15T01:56:26.194Z,9.366035
2023-03-15T01:57:26.240Z,9.366012
2023-03-15T01:58:26.156Z,9.366054
2023-03-15T01:59:26.264Z,9.366067
2023-03-15T02:00:26.124Z,9.366052
2023-03-15T02:01:26.127Z,9.366014
2023-03-15T02:02:26.145Z,9.366016
2023-03-15T02:03:26.135Z,9.366025
2023-03-15T02:04:26.095Z,9.366111
2023-03-15T02:05:26.049Z,9.366035
2023-03-15T02:06:26.087Z,9.365938
2023-03-15T02:07:26.053Z,9.365982
2023-03-15T02:08:25.998Z,9.366048
2023-03-15T02:09:26.067Z,9.366003
2023-03-15T02:10:26.019Z,9.365973
2023-03-15T02:11:26.040Z,9.365973
2023-03-15T02:12:26.032Z,9.365973
2023-03-15T02:13:25.959Z,9.365973
2023-03-15T02:14:25.976Z,9.365973
2023-03-15T02:15:26.005Z,9.365973
2023-03-15T02:16:25.973Z,9.365973
2023-03-15T02:17:25.920Z,9.365973
2023-03-15T02:18:25.938Z,9.365973
2023-03-15T02:19:25.896Z,9.365973
2023-03-15T02:20:25.953Z,9.365973
2023-03-15T02:21:25.944Z,9.365973
2023-03-15T02:22:25.852Z,9.365973
2023-03-15T02:23:25.851Z,9.365973
2023-03-15T02:24:25.844Z,9.365973
2023-03-15T02:25:25.853Z,9.365973
2023-03-15T02:26:25.850Z,9.365973
2023-03-15T02:27:25.854Z,9.365973
2023-03-15T02:28:26.815Z,9.365973
2023-03-15T02:29:25.804Z,9.365973
2023-03-15T02:30:25.846Z,9.365973
2023-03-15T02:31:25.840Z,9.365973
2023-03-15T02:32:25.836Z,9.365973
2023-03-15T02:33:25.887Z,9.365973
2023-03-15T02:34:25.756Z,9.365973
2023-03-15T02:35:25.732Z,9.365973
2023-03-15T02:36:25.807Z,9.365973
2023-03-15T02:37:25.783Z,9.365973
2023-03-15T02:38:25.768Z,9.366122
2023-03-15T02:39:25.710Z,9.366256
2023-03-15T02:40:25.677Z,9.365958
2023-03-15T02:41:25.674Z,9.365902
2023-03-15T02:42:25.694Z,9.366143
2023-03-15T02:43:25.662Z,9.365868
2023-03-15T02:44:25.611Z,9.365094
2023-03-15T02:45:25.787Z,9.365505
2023-03-15T02:46:25.633Z,9.365596
2023-03-15T02:47:25.635Z,9.365788
2023-03-15T02:48:25.622Z,9.365899
2023-03-15T02:49:25.581Z,9.366001
2023-03-15T02:50:26.575Z,9.365973
2023-03-15T02:51:25.548Z,9.366020
2023-03-15T02:52:25.531Z,9.365976
2023-03-15T02:53:25.551Z,9.366001
2023-03-15T02:54:25.541Z,9.365923
2023-03-15T02:55:25.513Z,9.365889
2023-03-15T02:56:25.472Z,9.365943
2023-03-15T02:57:25.501Z,9.365920
2023-03-15T02:58:25.492Z,9.365987
2023-03-15T02:59:25.471Z,9.365982
2023-03-15T03:00:25.520Z,9.365963
2023-03-15T03:01:25.481Z,9.365956
2023-03-15T03:02:25.470Z,9.365925
2023-03-15T03:03:25.484Z,9.366005
2023-03-15T03:04:25.388Z,9.366027
2023-03-15T03:05:25.438Z,9.365983
2023-03-15T03:06:25.415Z,9.366047
2023-03-15T03:07:25.400Z,9.366008
2023-03-15T03:08:25.435Z,9.366045
2023-03-15T03:09:25.347Z,9.365924
2023-03-15T03:10:25.358Z,9.365912
2023-03-15T03:11:25.315Z,9.365768
2023-03-15T03:12:25.355Z,9.365840
2023-03-15T03:13:25.285Z,9.365882
2023-03-15T03:14:25.321Z,9.366223
2023-03-15T03:15:25.299Z,9.366158
2023-03-15T03:16:25.295Z,9.366063
2023-03-15T03:17:25.270Z,9.366030
2023-03-15T03:18:25.291Z,9.365915
2023-03-15T03:19:25.252Z,9.366083
2023-03-15T03:20:25.259Z,9.366059
2023-03-15T03:21:25.197Z,9.366009
2023-03-15T03:22:25.201Z,9.366104
2023-03-15T03:23:25.206Z,9.366123
2023-03-15T03:24:25.152Z,9.365969
2023-03-15T03:25:25.143Z,9.365911
2023-03-15T03:26:25.168Z,9.365923
2023-03-15T03:27:25.130Z,9.365939
2023-03-15T03:28:25.094Z,9.365965
2023-03-15T03:29:25.132Z,9.365993
2023-03-15T03:30:25.139Z,9.366001
2023-03-15T03:31:25.057Z,9.365966
2023-03-15T03:32:25.125Z,9.365990
2023-03-15T03:33:25.072Z,9.366025
2023-03-15T03:34:25.039Z,9.365959
2023-03-15T03:35:25.081Z,9.365932
2023-03-15T03:36:25.023Z,9.366020
2023-03-15T03:37:25.015Z,9.366081
2023-03-15T03:38:25.007Z,9.366023
2023-03-15T03:39:25.004Z,9.365964
2023-03-15T03:40:25.006Z,9.365948
2023-03-15T03:41:24.947Z,9.365984
2023-03-15T03:42:24.965Z,9.365955
2023-03-15T03:43:24.967Z,9.365950
2023-03-15T03:44:24.964Z,9.365978
2023-03-15T03:45:24.920Z,9.365965
2023-03-15T03:46:24.968Z,9.366003
2023-03-15T03:47:24.879Z,9.365945
2023-03-15T03:48:24.873Z,9.366004
2023-03-15T03:49:24.883Z,9.366048
2023-03-15T03:50:24.891Z,9.366025
2023-03-15T03:51:24.905Z,9.366033
2023-03-15T03:52:24.888Z,9.366038
2023-03-15T03:53:24.851Z,9.365989
2023-03-15T03:54:24.829Z,9.366108
2023-03-15T03:55:24.810Z,9.366014
2023-03-15T03:56:24.820Z,9.365926
2023-03-15T03:57:24.774Z,9.365885
2023-03-15T03:58:24.793Z,9.365928
2023-03-15T03:59:24.740Z,9.365990
2023-03-15T04:00:24.778Z,9.365986
2023-03-15T04:01:24.749Z,9.365979
2023-03-15T04:02:24.752Z,9.366029
2023-03-15T04:03:24.710Z,9.366051
2023-03-15T04:04:24.723Z,9.366031
2023-03-15T04:05:24.678Z,9.365922
2023-03-15T04:06:24.685Z,9.365898
2023-03-15T04:07:24.748Z,9.365887
2023-03-15T04:08:24.656Z,9.365934
2023-03-15T04:09:24.666Z,9.366042
2023-03-15T04:10:24.635Z,9.366256
2023-03-15T04:11:24.607Z,9.366084
2023-03-15T04:12:24.700Z,9.365873
2023-03-15T04:13:24.633Z,9.365889
2023-03-15T04:14:24.681Z,9.366304
2023-03-15T04:15:24.594Z,9.366110
2023-03-15T04:16:24.721Z,9.366035
2023-03-15T04:17:24.534Z,9.366123
2023-03-15T04:18:24.582Z,9.366522
2023-03-15T04:19:24.561Z,9.366529
2023-03-15T04:20:24.514Z,9.367136
2023-03-15T04:21:24.541Z,9.366571
2023-03-15T04:22:24.501Z,9.366238
2023-03-15T04:23:24.500Z,9.366229
2023-03-15T04:24:24.572Z,9.366086
2023-03-15T04:25:24.498Z,9.365989
2023-03-15T04:26:24.444Z,9.365961
2023-03-15T04:27:24.509Z,9.366036
2023-03-15T04:28:24.490Z,9.366334
2023-03-15T04:29:24.458Z,9.366476
2023-03-15T04:30:24.432Z,9.366266
2023-03-15T04:31:24.448Z,9.366402
2023-03-15T04:32:24.396Z,9.366271
2023-03-15T04:33:24.378Z,9.366362
2023-03-15T04:34:24.419Z,9.366257
2023-03-15T04:35:24.367Z,9.366072
2023-03-15T04:36:25.349Z,9.365920
2023-03-15T04:37:24.343Z,9.366079
2023-03-15T04:38:24.310Z,9.366021
2023-03-15T04:39:24.361Z,9.365897
2023-03-15T04:40:24.313Z,9.366055
2023-03-15T04:41:24.311Z,9.366548
2023-03-15T04:42:24.868Z,9.366252
2023-03-15T04:43:24.313Z,9.366258
2023-03-15T04:44:24.289Z,9.366179
2023-03-15T04:45:24.258Z,9.365999
2023-03-15T04:46:25.131Z,9.365840
2023-03-15T04:47:24.310Z,9.365705
2023-03-15T04:48:24.343Z,9.366094
2023-03-15T04:49:24.219Z,9.365904
2023-03-15T04:50:24.220Z,9.365834
2023-03-15T04:51:24.152Z,9.366043
2023-03-15T04:52:24.160Z,9.365824
2023-03-15T04:53:24.176Z,9.366028
2023-03-15T04:54:24.133Z,9.366073
2023-03-15T04:55:24.177Z,9.365827
2023-03-15T04:56:24.110Z,9.365837
2023-03-15T04:57:24.118Z,9.365802
2023-03-15T04:58:24.131Z,9.366022
2023-03-15T04:59:24.091Z,9.366070
2023-03-15T05:00:24.348Z,9.366061
2023-03-15T05:01:24.072Z,9.366294
2023-03-15T05:02:24.149Z,9.366410
2023-03-15T05:03:24.048Z,9.366324
2023-03-15T05:04:24.045Z,9.366104
2023-03-15T05:05:24.083Z,9.365598
2023-03-15T05:06:23.994Z,9.365847
2023-03-15T05:07:24.017Z,9.365945
2023-03-15T05:08:23.991Z,9.365920
2023-03-15T05:09:23.964Z,9.366007
2023-03-15T05:10:23.993Z,9.366083
2023-03-15T05:11:23.946Z,9.365983
2023-03-15T05:12:23.925Z,9.365904
2023-03-15T05:13:23.951Z,9.366183
2023-03-15T05:14:23.941Z,9.366206
2023-03-15T05:15:23.925Z,9.366233
2023-03-15T05:16:24.119Z,9.366011
2023-03-15T05:17:23.873Z,9.365900
2023-03-15T05:18:23.853Z,9.365910
2023-03-15T05:19:23.853Z,9.366186
2023-03-15T05:20:23.842Z,9.366010
2023-03-15T05:21:23.850Z,9.365919
2023-03-15T05:22:23.789Z,9.366035
2023-03-15T05:23:23.810Z,9.365922
2023-03-15T05:24:23.792Z,9.365933
2023-03-15T05:25:23.774Z,9.365913
2023-03-15T05:26:23.814Z,9.366069
2023-03-15T05:27:23.748Z,9.365957
2023-03-15T05:28:23.802Z,9.365891
2023-03-15T05:29:23.739Z,9.365960
2023-03-15T05:30:23.756Z,9.365973
2023-03-15T05:31:23.736Z,9.366004
2023-03-15T05:32:23.777Z,9.366014
2023-03-15T05:33:23.690Z,9.366019
2023-03-15T05:34:23.662Z,9.365953
2023-03-15T05:35:23.675Z,9.365970
2023-03-15T05:36:23.643Z,9.365956
2023-03-15T05:37:23.692Z,9.365955
2023-03-15T05:38:23.652Z,9.365851
2023-03-15T05:39:23.625Z,9.365926
2023-03-15T05:40:23.636Z,9.365972
2023-03-15T05:41:23.637Z,9.365895
2023-03-15T05:42:24.603Z,9.365903
2023-03-15T05:43:23.615Z,9.366046
2023-03-15T05:44:23.580Z,9.366235
2023-03-15T05:45:23.585Z,9.366047
2023-03-15T05:46:23.538Z,9.366041
2023-03-15T05:47:23.562Z,9.365955
2023-03-15T05:48:23.542Z,9.365959
2023-03-15T05:49:23.514Z,9.366333
2023-03-15T05:50:23.494Z,9.365750
2023-03-15T05:51:23.478Z,9.365886
2023-03-15T05:52:23.549Z,9.366074
2023-03-15T05:53:23.476Z,9.365808
2023-03-15T05:54:23.516Z,9.365796
2023-03-15T05:55:23.443Z,9.365863
2023-03-15T05:56:23.461Z,9.366075
2023-03-15T05:57:23.399Z,9.366005
2023-03-15T05:58:24.451Z,9.366076
2023-03-15T05:59:23.405Z,9.366012
2023-03-15T06:00:23.365Z,9.366266
2023-03-15T06:01:23.421Z,9.366121
2023-03-15T06:02:23.351Z,9.366441
2023-03-15T06:03:23.361Z,9.366802
2023-03-15T06:04:23.478Z,9.366651
2023-03-15T06:05:23.346Z,9.366558
2023-03-15T06:06:23.308Z,9.366687
2023-03-15T06:07:23.277Z,9.366687
2023-03-15T06:08:23.345Z,9.366687
2023-03-15T06:09:23.279Z,9.366687
2023-03-15T06:10:23.246Z,9.366687
2023-03-15T06:11:23.249Z,9.366211
2023-03-15T06:12:23.239Z,9.366099
2023-03-15T06:13:24.140Z,9.366112
2023-03-15T06:14:23.240Z,9.366196
2023-03-15T06:15:23.258Z,9.366088
2023-03-15T06:16:23.210Z,9.365953
2023-03-15T06:17:23.176Z,9.366079
2023-03-15T06:18:23.186Z,9.366175
2023-03-15T06:19:23.195Z,9.366147
2023-03-15T06:20:23.129Z,9.366128
2023-03-15T06:21:23.144Z,9.366130
2023-03-15T06:22:23.127Z,9.366004
2023-03-15T06:23:23.119Z,9.366012
2023-03-15T06:24:23.113Z,9.366014
2023-03-15T06:25:23.074Z,9.366048
2023-03-15T06:26:23.057Z,9.366021
2023-03-15T06:27:23.109Z,9.366039
2023-03-15T06:28:23.048Z,9.366064
2023-03-15T06:29:23.096Z,9.366005
2023-03-15T06:30:23.038Z,9.365972
2023-03-15T06:31:23.034Z,9.366032
2023-03-15T06:32:23.086Z,9.365975
2023-03-15T06:33:23.017Z,9.366087
2023-03-15T06:34:22.996Z,9.366232
2023-03-15T06:35:22.994Z,9.366143
2023-03-15T06:36:23.047Z,9.366019
2023-03-15T06:37:34.598Z,9.366117
2023-03-15T06:38:22.997Z,9.366075
2023-03-15T06:39:22.931Z,9.366071
2023-03-15T06:40:22.946Z,9.366031
2023-03-15T06:41:22.892Z,9.365991
2023-03-15T06:42:22.967Z,9.366015
2023-03-15T06:43:22.869Z,9.366020
2023-03-15T06:44:22.923Z,9.366014
2023-03-15T06:45:22.881Z,9.366117
2023-03-15T06:46:22.878Z,9.366056
2023-03-15T06:47:22.880Z,9.366039
2023-03-15T06:48:22.833Z,9.365993
2023-03-15T06:49:22.910Z,9.366049
2023-03-15T06:50:22.843Z,9.366055
2023-03-15T06:51:22.829Z,9.366078
2023-03-15T06:52:22.796Z,9.366118
2023-03-15T06:53:22.776Z,9.366188
2023-03-15T06:54:22.751Z,9.366096
2023-03-15T06:55:22.782Z,9.366046
2023-03-15T06:56:22.825Z,9.365998
2023-03-15T06:57:22.752Z,9.366079
2023-03-15T06:58:22.708Z,9.366138
2023-03-15T06:59:22.728Z,9.366077
2023-03-15T07:00:22.690Z,9.366020
2023-03-15T07:01:22.768Z,9.366032
2023-03-15T07:02:22.749Z,9.366061
2023-03-15T07:03:22.669Z,9.365933
2023-03-15T07:04:22.665Z,9.366026
2023-03-15T07:05:22.668Z,9.366071
2023-03-15T07:06:22.626Z,9.366055
2023-03-15T07:07:22.665Z,9.365984
2023-03-15T07:08:22.622Z,9.366011
2023-03-15T07:09:22.592Z,9.365997
2023-03-15T07:10:22.608Z,9.366008
2023-03-15T07:11:22.617Z,9.365950
2023-03-15T07:12:22.560Z,9.366133
2023-03-15T07:13:22.575Z,9.366084
2023-03-15T07:14:22.554Z,9.366027
2023-03-15T07:15:22.530Z,9.366009
2023-03-15T07:16:22.589Z,9.366005
2023-03-15T07:17:22.499Z,9.365924
2023-03-15T07:18:22.574Z,9.366181
2023-03-15T07:19:22.517Z,9.366059
2023-03-15T07:20:22.501Z,9.365960
2023-03-15T07:21:22.519Z,9.365977
2023-03-15T07:22:23.431Z,9.365932
2023-03-15T07:23:22.480Z,9.365952
2023-03-15T07:24:22.426Z,9.365981
2023-03-15T07:25:22.394Z,9.365997
2023-03-15T07:26:22.403Z,9.366134
2023-03-15T07:27:22.419Z,9.366134
2023-03-15T07:28:22.435Z,9.366134
2023-03-15T07:29:22.372Z,9.366134
2023-03-15T07:30:22.354Z,9.366134
2023-03-15T07:31:22.311Z,9.366134
2023-03-15T07:32:22.460Z,9.366134
2023-03-15T07:33:22.369Z,9.366134
2023-03-15T07:34:22.323Z,9.366134
2023-03-15T07:35:22.370Z,9.366134
2023-03-15T07:36:22.312Z,9.366134
2023-03-15T07:37:22.269Z,9.366134
2023-03-15T07:38:22.283Z,9.366134
2023-03-15T07:39:22.256Z,9.366134
2023-03-15T07:40:22.231Z,9.366134
2023-03-15T07:41:22.216Z,9.366134
2023-03-15T07:42:22.197Z,9.366134
2023-03-15T07:43:22.190Z,9.366134
2023-03-15T07:44:22.240Z,9.366134
2023-03-15T07:45:22.186Z,9.366134
2023-03-15T07:46:22.251Z,9.366134
2023-03-15T07:47:22.136Z,9.366134
2023-03-15T07:48:22.210Z,9.366134
2023-03-15T07:49:22.150Z,9.366134
2023-03-15T07:50:22.230Z,9.366134
2023-03-15T07:51:22.143Z,9.366134
2023-03-15T07:52:22.234Z,9.366134
2023-03-15T07:53:22.101Z,9.366134
2023-03-15T07:54:22.128Z,9.366134
2023-03-15T07:55:22.178Z,9.366033
2023-03-15T07:56:22.038Z,9.366098
2023-03-15T07:57:22.183Z,9.365921
2023-03-15T07:58:22.074Z,9.366108
2023-03-15T07:59:22.015Z,9.366214
2023-03-15T08:00:22.039Z,9.366469
2023-03-15T08:01:23.027Z,9.366115
2023-03-15T08:02:22.151Z,9.366002
2023-03-15T08:03:22.050Z,9.366000
2023-03-15T08:04:21.961Z,9.366066
2023-03-15T08:05:21.959Z,9.366062
2023-03-15T08:06:21.990Z,9.366086
2023-03-15T08:07:22.001Z,9.366065
2023-03-15T08:08:21.968Z,9.366064
2023-03-15T08:09:21.921Z,9.366051
2023-03-15T08:10:21.928Z,9.366053
2023-03-15T08:11:21.926Z,9.366050
2023-03-15T08:12:21.892Z,9.366008
2023-03-15T08:13:21.857Z,9.366051
2023-03-15T08:14:21.938Z,9.366031
2023-03-15T08:15:21.877Z,9.365947
2023-03-15T08:16:22.100Z,9.365992
2023-03-15T08:17:21.902Z,9.366011
2023-03-15T08:18:21.873Z,9.366021
2023-03-15T08:19:21.816Z,9.366048
2023-03-15T08:20:21.905Z,9.366023
2023-03-15T08:21:21.825Z,9.365994
2023-03-15T08:22:21.839Z,9.366029
2023-03-15T08:23:21.899Z,9.366041
2023-03-15T08:24:21.758Z,9.366020
2023-03-15T08:25:21.758Z,9.365980
2023-03-15T08:26:21.708Z,9.365995
2023-03-15T08:27:21.823Z,9.366016
2023-03-15T08:28:21.731Z,9.366017
2023-03-15T08:29:21.744Z,9.366029
2023-03-15T08:30:21.776Z,9.366054
2023-03-15T08:31:21.734Z,9.366266
2023-03-15T08:32:21.742Z,9.366083
2023-03-15T08:33:21.773Z,9.366047
2023-03-15T08:34:21.738Z,9.366010
2023-03-15T08:35:21.683Z,9.365903
2023-03-15T08:36:21.696Z,9.365946
2023-03-15T08:37:21.576Z,9.365857
2023-03-15T08:38:21.589Z,9.366010
2023-03-15T08:39:21.561Z,9.365986
2023-03-15T08:40:21.544Z,9.365989
2023-03-15T08:41:21.548Z,9.365969
2023-03-15T08:42:21.603Z,9.365969
2023-03-15T08:43:21.538Z,9.365972
2023-03-15T08:44:21.589Z,9.365985
2023-03-15T08:45:21.496Z,9.365960
2023-03-15T08:46:21.510Z,9.365914
2023-03-15T08:47:21.491Z,9.365996
2023-03-15T08:48:21.479Z,9.365976
2023-03-15T08:49:21.436Z,9.366015
2023-03-15T08:50:21.418Z,9.365881
2023-03-15T08:51:21.427Z,9.365744
2023-03-15T08:52:21.436Z,9.365948
2023-03-15T08:53:21.381Z,9.366290
2023-03-15T08:54:21.422Z,9.366520
2023-03-15T08:55:21.381Z,9.366220
2023-03-15T08:56:21.384Z,9.366033
2023-03-15T08:57:21.340Z,9.366025
2023-03-15T08:58:21.389Z,9.365756
2023-03-15T08:59:31.455Z,9.365989
2023-03-15T09:00:21.308Z,9.366096
2023-03-15T09:01:21.319Z,9.365972
2023-03-15T09:02:21.362Z,9.366047
2023-03-15T09:03:21.260Z,9.366102
2023-03-15T09:04:21.349Z,9.365899
2023-03-15T09:05:21.306Z,9.366058
2023-03-15T09:06:21.276Z,9.366140
2023-03-15T09:07:21.309Z,9.366198
2023-03-15T09:08:21.280Z,9.365972
2023-03-15T09:09:21.222Z,9.366014
2023-03-15T09:10:21.216Z,9.365856
2023-03-15T09:11:21.191Z,9.365891
2023-03-15T09:12:21.195Z,9.365946
2023-03-15T09:13:21.153Z,9.366053
2023-03-15T09:14:21.152Z,9.366101
2023-03-15T09:15:21.235Z,9.366043
2023-03-15T09:16:21.204Z,9.366233
2023-03-15T09:17:21.117Z,9.366079
2023-03-15T09:18:21.215Z,9.365982
2023-03-15T09:19:21.122Z,9.365967
2023-03-15T09:20:21.086Z,9.365977
2023-03-15T09:21:21.168Z,9.366078
2023-03-15T09:22:38.200Z,9.366007
2023-03-15T09:23:22.152Z,9.365935
2023-03-15T09:24:21.084Z,9.366037
2023-03-15T09:25:21.214Z,9.366001
2023-03-15T09:26:21.337Z,9.365988
2023-03-15T09:27:21.037Z,9.366035
2023-03-15T09:28:21.047Z,9.366156
2023-03-15T09:29:20.999Z,9.365819
2023-03-15T09:30:21.131Z,9.365998
2023-03-15T09:31:22.219Z,9.366290
2023-03-15T09:32:22.775Z,9.366271
